Time;durP1;ratioP1;P1;durP2;ratioP2;P2;SDS_P1;SDS_P2;PMS_P1;PMS_P2;Temp;Humidity;BMP_temperature;BMP_pressure;BME280_temperature;BME280_humidity;BME280_pressure;Samples;Min_cycle;Max_cycle;Signal;HPM_P1;HPM_P2
2023/12/20 00:00:47;;;;;;;10.90;4.57;;;;;;;5.32;100.00;101414.19;5043449;28;20025;-63
2023/12/20 00:03:13;;;;;;;9.13;4.15;;;;;;;5.28;100.00;101414.00;5057281;28;20019;-63
2023/12/20 00:05:41;;;;;;;12.88;5.10;;;;;;;5.26;100.00;101424.97;5051650;28;20124;-64
2023/12/20 00:08:06;;;;;;;9.35;4.72;;;;;;;5.24;100.00;101426.53;5047798;28;20594;-63
2023/12/20 00:10:31;;;;;;;10.93;5.10;;;;;;;5.21;100.00;101424.69;5044846;28;20018;-63
2023/12/20 00:12:56;;;;;;;12.52;5.13;;;;;;;5.18;100.00;101432.19;5037936;28;20159;-63
2023/12/20 00:15:22;;;;;;;10.77;5.15;;;;;;;5.15;100.00;101438.03;5047113;28;20017;-63
2023/12/20 00:17:47;;;;;;;15.68;4.47;;;;;;;5.12;100.00;101424.09;5048654;28;20025;-63
2023/12/20 00:20:12;;;;;;;11.32;4.35;;;;;;;5.07;100.00;101428.97;5047203;28;20085;-63
2023/12/20 00:22:38;;;;;;;10.85;3.53;;;;;;;5.06;100.00;101437.44;5055631;28;20036;-63
2023/12/20 00:25:03;;;;;;;12.93;4.78;;;;;;;5.02;100.00;101436.34;5053357;28;20021;-63
2023/12/20 00:27:29;;;;;;;16.42;4.03;;;;;;;5.02;100.00;101425.16;5034736;28;20079;-63
2023/12/20 00:29:54;;;;;;;11.63;3.78;;;;;;;4.98;100.00;101423.22;5048391;28;20049;-63
2023/12/20 00:32:20;;;;;;;15.68;3.78;;;;;;;4.95;100.00;101421.34;5054655;28;20067;-63
2023/12/20 00:34:45;;;;;;;15.95;4.95;;;;;;;4.92;100.00;101424.59;5028240;28;20339;-63
2023/12/20 00:37:10;;;;;;;10.88;3.25;;;;;;;4.90;100.00;101418.47;5046924;28;20052;-63
2023/12/20 00:39:36;;;;;;;20.25;3.72;;;;;;;4.87;100.00;101417.38;5051297;28;20476;-62
2023/12/20 00:42:01;;;;;;;11.50;3.28;;;;;;;4.84;100.00;101417.19;5047535;28;20138;-63
2023/12/20 00:44:26;;;;;;;11.10;3.38;;;;;;;4.82;100.00;101416.22;5043162;28;20388;-63
2023/12/20 00:46:51;;;;;;;11.63;3.30;;;;;;;4.76;100.00;101412.44;5052443;28;20373;-63
2023/12/20 00:49:18;;;;;;;11.48;3.50;;;;;;;4.74;100.00;101411.47;5052487;28;20032;-63
2023/12/20 00:51:43;;;;;;;17.10;3.92;;;;;;;4.74;100.00;101415.69;5049682;28;20401;-63
2023/12/20 00:54:09;;;;;;;13.93;3.45;;;;;;;4.69;100.00;101415.41;5044828;28;20029;-63
2023/12/20 00:56:34;;;;;;;12.27;2.85;;;;;;;4.67;100.00;101416.97;5047247;28;21111;-63
2023/12/20 00:58:59;;;;;;;14.02;3.03;;;;;;;4.65;100.00;101413.41;5041823;28;20033;-63
2023/12/20 01:01:25;;;;;;;12.73;2.45;;;;;;;4.62;100.00;101406.41;5047755;28;20159;-63
2023/12/20 01:03:51;;;;;;;17.38;2.85;;;;;;;4.59;100.00;101415.59;5047266;28;20552;-63
2023/12/20 01:06:16;;;;;;;15.48;3.47;;;;;;;4.57;100.00;101415.47;5039153;28;20017;-63
2023/12/20 01:08:41;;;;;;;11.60;2.90;;;;;;;4.55;100.00;101425.66;5041545;28;20538;-63
2023/12/20 01:11:07;;;;;;;13.02;2.80;;;;;;;4.53;100.00;101411.81;5048317;28;20058;-63
2023/12/20 01:13:32;;;;;;;12.70;3.05;;;;;;;4.52;100.00;101415.19;5050989;28;20025;-63
2023/12/20 01:15:57;;;;;;;10.80;2.60;;;;;;;4.49;100.00;101427.81;5058268;28;20025;-63
2023/12/20 01:18:23;;;;;;;11.68;2.78;;;;;;;4.47;100.00;101423.34;5060683;28;20032;-63
2023/12/20 01:20:48;;;;;;;12.88;2.55;;;;;;;4.44;100.00;101429.19;5038124;28;20516;-63
2023/12/20 01:23:13;;;;;;;13.38;3.13;;;;;;;4.43;100.00;101427.41;5055652;28;20028;-63
2023/12/20 01:25:39;;;;;;;10.30;2.13;;;;;;;4.41;100.00;101424.72;5046034;28;20029;-63
2023/12/20 01:28:05;;;;;;;11.63;2.63;;;;;;;4.41;100.00;101423.84;5046441;28;20029;-63
2023/12/20 01:30:30;;;;;;;9.23;2.50;;;;;;;4.38;100.00;101424.53;5046337;28;20506;-63
2023/12/20 01:32:55;;;;;;;12.57;2.75;;;;;;;4.39;100.00;101430.56;5047772;28;20079;-63
2023/12/20 01:35:21;;;;;;;12.38;2.53;;;;;;;4.40;100.00;101429.78;5047914;28;20047;-63
2023/12/20 01:37:46;;;;;;;11.68;2.35;;;;;;;4.39;100.00;101431.44;5049472;28;20496;-62
2023/12/20 01:40:11;;;;;;;18.15;3.70;;;;;;;4.40;100.00;101427.19;5040342;28;20029;-63
2023/12/20 01:42:37;;;;;;;13.70;3.10;;;;;;;4.40;100.00;101427.19;5047520;28;20146;-63
2023/12/20 01:45:04;;;;;;;12.77;2.28;;;;;;;4.39;100.00;101428.88;5051496;28;20048;-63
2023/12/20 01:47:29;;;;;;;9.10;2.00;;;;;;;4.40;100.00;101422.06;5048193;28;20029;-63
2023/12/20 01:49:56;;;;;;;14.48;2.55;;;;;;;4.39;100.00;101426.31;5042495;28;20036;-63
2023/12/20 01:52:22;;;;;;;21.13;3.83;;;;;;;4.37;100.00;101416.75;5039647;28;20532;-64
2023/12/20 01:54:48;;;;;;;16.48;3.10;;;;;;;4.35;100.00;101416.66;5050768;28;20025;-63
2023/12/20 01:57:14;;;;;;;16.27;2.50;;;;;;;4.35;100.00;101418.31;5060129;28;20013;-63
2023/12/20 01:59:40;;;;;;;14.33;2.67;;;;;;;4.29;100.00;101413.66;5048150;28;20074;-63
2023/12/20 02:02:07;;;;;;;11.77;2.53;;;;;;;4.27;100.00;101421.25;5063814;28;20028;-62
2023/12/20 02:04:33;;;;;;;11.57;2.70;;;;;;;4.25;100.00;101414.22;5050154;28;20064;-63
2023/12/20 02:06:59;;;;;;;14.80;3.50;;;;;;;4.24;100.00;101427.84;5049663;28;20389;-63
2023/12/20 02:09:24;;;;;;;13.23;2.73;;;;;;;4.23;100.00;101423.53;5048946;28;20032;-63
2023/12/20 02:11:50;;;;;;;11.33;3.50;;;;;;;4.18;100.00;101410.38;5050539;28;20025;-63
2023/12/20 02:14:15;;;;;;;12.10;2.83;;;;;;;4.18;100.00;101426.66;5038017;28;20033;-63
2023/12/20 02:16:41;;;;;;;13.90;2.80;;;;;;;4.17;100.00;101429.13;5047757;28;20033;-64
2023/12/20 02:19:13;;;;;;;15.63;2.70;;;;;;;4.16;100.00;101427.31;5049534;28;20017;-63
2023/12/20 02:21:38;;;;;;;13.57;3.00;;;;;;;4.16;100.00;101427.31;5049360;28;20032;-63
2023/12/20 02:24:04;;;;;;;11.57;3.17;;;;;;;4.15;100.00;101413.63;5049812;28;20052;-63
2023/12/20 02:26:32;;;;;;;12.50;2.97;;;;;;;4.12;100.00;101413.41;5058143;28;20029;-63
2023/12/20 02:28:58;;;;;;;17.20;3.67;;;;;;;4.12;100.00;101412.53;5050433;28;20365;-63
2023/12/20 02:31:23;;;;;;;10.73;2.70;;;;;;;4.12;100.00;101415.97;5046948;28;20028;-63
2023/12/20 02:33:49;;;;;;;12.70;3.20;;;;;;;4.11;100.00;101418.44;5038624;28;20082;-63
2023/12/20 02:36:14;;;;;;;13.40;4.10;;;;;;;4.13;100.00;101424.56;5049162;28;20029;-63
2023/12/20 02:38:39;;;;;;;15.73;3.40;;;;;;;4.10;100.00;101421.78;5052383;28;20029;-63
2023/12/20 02:41:04;;;;;;;12.40;3.17;;;;;;;4.10;100.00;101421.78;5052393;28;20189;-63
2023/12/20 02:43:30;;;;;;;12.47;3.20;;;;;;;4.07;100.00;101422.47;5049330;28;20057;-63
2023/12/20 02:45:55;;;;;;;14.57;3.73;;;;;;;4.08;100.00;101414.84;5049025;28;20024;-63
2023/12/20 02:48:20;;;;;;;13.13;3.07;;;;;;;4.07;100.00;101417.31;5049248;28;20412;-63
2023/12/20 02:50:48;;;;;;;13.60;3.37;;;;;;;4.05;100.00;101419.78;5031599;28;20053;-63
2023/12/20 02:53:14;;;;;;;14.53;3.23;;;;;;;4.05;100.00;101417.22;5045919;28;20060;-63
2023/12/20 02:55:39;;;;;;;20.40;3.60;;;;;;;4.06;100.00;101425.81;5045573;28;20060;-62
2023/12/20 02:58:04;;;;;;;12.15;3.17;;;;;;;4.04;100.00;101425.72;5046306;28;20438;-62
2023/12/20 03:00:30;;;;;;;17.80;5.40;;;;;;;4.04;100.00;101418.03;5060616;28;20034;-63
2023/12/20 03:02:55;;;;;;;15.13;3.40;;;;;;;4.03;100.00;101421.34;5062619;28;20420;-63
2023/12/20 03:05:20;;;;;;;16.60;3.60;;;;;;;4.02;100.00;101421.25;5061872;28;20070;-63
2023/12/20 03:07:46;;;;;;;13.85;3.25;;;;;;;4.03;100.00;101421.34;5061367;28;20108;-63
2023/12/20 03:10:11;;;;;;;9.93;3.83;;;;;;;4.04;100.00;101417.13;5062367;28;20033;-63
2023/12/20 03:12:37;;;;;;;13.40;3.50;;;;;;;4.04;100.00;101422.25;5068438;28;20036;-63
2023/12/20 03:15:03;;;;;;;12.68;3.58;;;;;;;4.05;100.00;101412.09;5054924;28;20035;-63
2023/12/20 03:17:28;;;;;;;18.57;3.30;;;;;;;4.06;100.00;101406.19;5061896;28;20029;-62
2023/12/20 03:19:53;;;;;;;11.13;3.40;;;;;;;4.07;100.00;101407.97;5060495;28;20060;-63
2023/12/20 03:22:19;;;;;;;13.47;3.07;;;;;;;4.04;100.00;101402.63;5043558;28;20142;-63
2023/12/20 03:24:44;;;;;;;14.93;3.60;;;;;;;4.04;100.00;101407.75;5049263;28;20120;-63
2023/12/20 03:27:09;;;;;;;12.23;3.55;;;;;;;4.04;100.00;101401.75;5065028;28;20040;-62
2023/12/20 03:29:34;;;;;;;17.70;3.87;;;;;;;4.02;100.00;101396.50;5048676;28;20040;-63
2023/12/20 03:32:00;;;;;;;19.63;4.07;;;;;;;3.99;100.00;101393.75;5048376;28;20017;-62
2023/12/20 03:34:26;;;;;;;12.57;3.27;;;;;;;4.00;100.00;101389.47;5048073;28;20028;-63
2023/12/20 03:36:51;;;;;;;13.13;3.93;;;;;;;3.96;100.00;101389.28;5038304;28;20025;-62
2023/12/20 03:39:17;;;;;;;15.07;3.70;;;;;;;3.95;100.00;101392.66;5048004;28;20051;-63
2023/12/20 03:41:42;;;;;;;19.02;3.55;;;;;;;3.95;100.00;101395.22;5047529;28;20079;-63
2023/12/20 03:44:07;;;;;;;16.65;3.72;;;;;;;3.95;100.00;101402.00;5048329;28;20063;-63
2023/12/20 03:46:32;;;;;;;14.53;3.67;;;;;;;3.94;100.00;101395.09;5048007;28;20025;-63
2023/12/20 03:48:58;;;;;;;13.30;4.22;;;;;;;3.94;100.00;101377.16;5048005;28;20029;-63
2023/12/20 03:51:23;;;;;;;17.93;3.73;;;;;;;3.96;100.00;101375.56;5051655;28;20393;-63
2023/12/20 03:53:48;;;;;;;12.27;4.10;;;;;;;3.99;100.00;101391.19;5067844;28;20029;-62
2023/12/20 03:56:13;;;;;;;14.97;4.73;;;;;;;4.02;100.00;101391.38;5053069;28;20029;-63
2023/12/20 03:58:39;;;;;;;14.07;4.07;;;;;;;4.05;100.00;101389.00;5044037;28;20547;-62
2023/12/20 04:01:10;;;;;;;16.00;4.35;;;;;;;4.06;100.00;101380.56;5057437;28;20020;-63
2023/12/20 04:03:35;;;;;;;15.80;3.75;;;;;;;4.09;100.00;101387.53;5050226;28;20033;-63
2023/12/20 04:06:01;;;;;;;14.82;4.10;;;;;;;4.10;100.00;101375.63;5048531;28;20032;-63
2023/12/20 04:08:26;;;;;;;19.58;5.13;;;;;;;4.11;100.00;101382.50;5059829;28;20523;-63
2023/12/20 04:10:51;;;;;;;19.73;5.18;;;;;;;4.13;100.00;101381.84;5057807;28;20051;-63
2023/12/20 04:13:16;;;;;;;15.97;4.80;;;;;;;4.16;100.00;101387.16;5053682;28;20437;-63
2023/12/20 04:15:42;;;;;;;20.65;4.00;;;;;;;4.17;100.00;101385.50;5047044;28;20033;-63
2023/12/20 04:18:08;;;;;;;17.00;4.90;;;;;;;4.19;100.00;101392.50;5058097;28;20485;-63
2023/12/20 04:20:34;;;;;;;15.98;4.63;;;;;;;4.21;100.00;101392.59;5058637;28;20020;-63
2023/12/20 04:22:59;;;;;;;14.85;4.25;;;;;;;4.24;100.00;101392.81;5052161;28;20372;-62
2023/12/20 04:25:24;;;;;;;13.85;4.25;;;;;;;4.25;100.00;101386.00;5065221;28;20030;-63
2023/12/20 04:27:50;;;;;;;16.20;5.22;;;;;;;4.27;100.00;101385.31;5047822;28;20384;-62
2023/12/20 04:30:15;;;;;;;15.88;4.93;;;;;;;4.29;100.00;101394.03;5052631;28;20570;-63
2023/12/20 04:32:40;;;;;;;19.63;5.13;;;;;;;4.32;100.00;101394.22;5054931;28;20021;-63
2023/12/20 04:35:06;;;;;;;17.73;3.92;;;;;;;4.35;100.00;101408.03;5055429;28;20625;-63
2023/12/20 04:37:31;;;;;;;16.38;4.70;;;;;;;4.35;100.00;101396.09;5047742;28;20039;-63
2023/12/20 04:39:56;;;;;;;19.80;5.60;;;;;;;4.38;100.00;101380.00;5047522;28;20033;-63
2023/12/20 04:42:21;;;;;;;25.05;5.10;;;;;;;4.39;100.00;101392.06;5034757;28;20033;-63
2023/12/20 04:44:47;;;;;;;18.65;5.78;;;;;;;4.39;100.00;101390.38;5047649;28;20548;-63
2023/12/20 04:47:12;;;;;;;16.15;4.57;;;;;;;4.40;100.00;101393.84;5033763;28;20025;-62
2023/12/20 04:49:37;;;;;;;18.98;4.95;;;;;;;4.42;100.00;101389.69;5055012;28;20037;-63
2023/12/20 04:52:03;;;;;;;16.33;4.80;;;;;;;4.41;100.00;101387.91;5064605;28;20507;-63
2023/12/20 04:54:28;;;;;;;14.73;4.07;;;;;;;4.43;100.00;101383.75;5047867;28;20025;-63
2023/12/20 04:56:53;;;;;;;17.52;4.40;;;;;;;4.47;100.00;101393.47;5047409;28;20037;-63
2023/12/20 04:59:18;;;;;;;12.23;4.18;;;;;;;4.49;100.00;101394.44;5040925;28;20378;-63
2023/12/20 05:01:44;;;;;;;16.58;4.45;;;;;;;4.52;100.00;101396.31;5040796;28;20029;-63
2023/12/20 05:04:09;;;;;;;17.20;5.00;;;;;;;4.51;100.00;101382.63;5034830;28;20070;-62
2023/12/20 05:06:34;;;;;;;20.27;4.25;;;;;;;4.51;100.00;101385.19;5045957;28;20032;-63
2023/12/20 05:08:59;;;;;;;13.07;3.85;;;;;;;4.53;100.00;101392.97;5057424;28;20013;-63
2023/12/20 05:11:25;;;;;;;14.93;4.18;;;;;;;4.53;100.00;101387.84;5058768;28;20033;-63
2023/12/20 05:13:50;;;;;;;25.40;4.97;;;;;;;4.53;100.00;101382.72;5055949;28;20024;-63
2023/12/20 05:16:17;;;;;;;11.30;3.88;;;;;;;4.53;100.00;101382.72;5047742;28;20035;-63
2023/12/20 05:18:43;;;;;;;23.17;5.20;;;;;;;4.54;100.00;101375.09;5070323;28;20383;-63
2023/12/20 05:21:08;;;;;;;11.93;3.50;;;;;;;4.56;100.00;101372.63;5069812;28;20032;-63
2023/12/20 05:23:33;;;;;;;17.92;5.40;;;;;;;4.57;100.00;101370.16;5053134;28;20029;-63
2023/12/20 05:25:59;;;;;;;19.98;5.00;;;;;;;4.57;100.00;101379.53;5059329;28;20151;-63
2023/12/20 05:28:24;;;;;;;21.38;4.00;;;;;;;4.59;100.00;101374.53;5053453;28;20099;-63
2023/12/20 05:30:49;;;;;;;17.90;4.43;;;;;;;4.59;100.00;101382.22;5058579;28;20016;-63
2023/12/20 05:33:15;;;;;;;22.58;4.53;;;;;;;4.58;100.00;101376.19;5065862;28;20681;-63
2023/12/20 05:35:40;;;;;;;16.17;4.30;;;;;;;4.59;100.00;101375.38;5065036;28;20506;-63
2023/12/20 05:38:05;;;;;;;19.70;4.22;;;;;;;4.59;100.00;101371.97;5054012;28;20035;-63
2023/12/20 05:40:32;;;;;;;15.45;3.53;;;;;;;4.59;100.00;101370.25;5057286;28;20038;-63
2023/12/20 05:42:57;;;;;;;15.40;3.33;;;;;;;4.59;100.00;101377.09;5057475;28;20020;-63
2023/12/20 05:45:22;;;;;;;11.40;3.97;;;;;;;4.59;100.00;101371.97;5051954;28;20029;-62
2023/12/20 05:47:47;;;;;;;17.63;3.78;;;;;;;4.58;100.00;101376.19;5051020;28;20333;-63
2023/12/20 05:50:13;;;;;;;19.75;4.82;;;;;;;4.57;100.00;101387.22;5053536;28;20628;-63
2023/12/20 05:52:38;;;;;;;24.15;4.53;;;;;;;4.56;100.00;101381.22;5053937;28;20025;-63
2023/12/20 05:55:04;;;;;;;17.65;4.30;;;;;;;4.56;100.00;101386.38;5052885;28;20138;-63
2023/12/20 05:57:29;;;;;;;20.98;4.20;;;;;;;4.56;100.00;101391.50;5055375;28;20396;-63
2023/12/20 05:59:54;;;;;;;19.20;4.03;;;;;;;4.51;100.00;101398.00;5058590;28;20408;-63
2023/12/20 06:02:20;;;;;;;16.93;4.00;;;;;;;4.50;100.00;101398.78;5065701;28;20041;-63
2023/12/20 06:04:45;;;;;;;20.67;4.38;;;;;;;4.50;100.00;101403.91;5066126;28;20031;-63
2023/12/20 06:07:14;;;;;;;15.20;3.65;;;;;;;4.47;100.00;101406.28;5052988;28;20020;-63
2023/12/20 06:09:40;;;;;;;13.63;4.10;;;;;;;4.44;100.00;101406.97;5053645;28;20126;-63
2023/12/20 06:12:05;;;;;;;18.92;4.30;;;;;;;4.42;100.00;101406.00;5052364;28;20056;-63
2023/12/20 06:14:31;;;;;;;24.55;4.35;;;;;;;4.41;100.00;101399.06;5053020;28;20025;-63
2023/12/20 06:16:57;;;;;;;11.93;2.93;;;;;;;4.39;100.00;101400.63;5039340;28;20473;-62
2023/12/20 06:19:22;;;;;;;18.10;4.45;;;;;;;4.40;100.00;101394.72;5039651;28;20029;-63
2023/12/20 06:21:48;;;;;;;20.27;4.37;;;;;;;4.41;100.00;101398.16;5051245;28;20331;-63
2023/12/20 06:24:13;;;;;;;13.05;3.28;;;;;;;4.40;100.00;101404.09;5043955;28;20032;-63
2023/12/20 06:26:39;;;;;;;12.93;4.32;;;;;;;4.39;100.00;101392.06;5047678;28;20032;-63
2023/12/20 06:29:04;;;;;;;19.63;5.25;;;;;;;4.37;100.00;101397.06;5047362;28;20027;-63
2023/12/20 06:31:29;;;;;;;19.10;4.68;;;;;;;4.37;100.00;101393.66;5046836;28;20033;-63
2023/12/20 06:33:57;;;;;;;19.10;4.32;;;;;;;4.34;100.00;101399.44;5058837;28;20496;-62
2023/12/20 06:36:23;;;;;;;16.65;3.97;;;;;;;4.30;100.00;101395.78;5052800;28;20496;-63
2023/12/20 06:38:48;;;;;;;13.80;4.03;;;;;;;4.28;100.00;101396.50;5048023;28;20033;-63
2023/12/20 06:41:15;;;;;;;18.10;4.40;;;;;;;4.24;100.00;101400.53;5049890;28;20059;-63
2023/12/20 06:43:41;;;;;;;22.48;4.95;;;;;;;4.24;100.00;101395.41;5050189;28;20028;-63
2023/12/20 06:46:07;;;;;;;15.73;4.90;;;;;;;4.24;100.00;101397.06;5056250;28;20029;-63
2023/12/20 06:48:32;;;;;;;21.53;5.37;;;;;;;4.23;100.00;101398.72;5054404;28;20043;-63
2023/12/20 06:51:00;;;;;;;15.20;5.20;;;;;;;4.20;100.00;101399.44;5055642;28;20048;-63
2023/12/20 06:53:25;;;;;;;15.82;5.05;;;;;;;4.18;100.00;101406.13;5055576;28;20037;-63
2023/12/20 06:55:50;;;;;;;15.90;5.03;;;;;;;4.17;100.00;101401.75;5067665;28;20024;-63
2023/12/20 06:58:16;;;;;;;15.18;5.22;;;;;;;4.16;100.00;101388.84;5042339;28;20060;-63
2023/12/20 07:00:41;;;;;;;17.73;5.65;;;;;;;4.17;100.00;101386.38;5056599;28;20040;-62
2023/12/20 07:03:07;;;;;;;14.80;4.47;;;;;;;4.18;100.00;101390.75;5042745;28;20033;-63
2023/12/20 07:05:33;;;;;;;16.60;5.73;;;;;;;4.20;100.00;101393.41;5062181;28;20450;-63
2023/12/20 07:07:58;;;;;;;16.90;4.63;;;;;;;4.20;100.00;101386.59;5048701;28;20033;-63
2023/12/20 07:10:23;;;;;;;16.35;5.10;;;;;;;4.20;100.00;101380.56;5029708;28;20025;-63
2023/12/20 07:12:49;;;;;;;20.40;5.57;;;;;;;4.22;100.00;101384.13;5042720;28;20375;-63
2023/12/20 07:15:14;;;;;;;16.40;4.93;;;;;;;4.20;100.00;101391.72;5064780;28;20150;-63
2023/12/20 07:17:39;;;;;;;19.83;5.17;;;;;;;4.21;100.00;101390.03;5064501;28;20048;-63
2023/12/20 07:20:07;;;;;;;21.48;5.85;;;;;;;4.21;100.00;101390.03;5047340;28;20039;-63
2023/12/20 07:22:33;;;;;;;19.25;5.40;;;;;;;4.20;100.00;101384.03;5036164;28;20044;-62
2023/12/20 07:24:59;;;;;;;29.13;6.33;;;;;;;4.19;100.00;101391.63;5053198;28;20063;-63
2023/12/20 07:27:24;;;;;;;18.00;5.15;;;;;;;4.20;100.00;101386.59;5049871;28;20052;-63
2023/12/20 07:29:49;;;;;;;23.83;5.80;;;;;;;4.22;100.00;101389.25;5048984;28;20020;-63
2023/12/20 07:32:15;;;;;;;13.48;4.50;;;;;;;4.21;100.00;101390.03;5054106;28;20035;-63
2023/12/20 07:34:40;;;;;;;17.70;4.50;;;;;;;4.23;100.00;101383.34;5068265;28;20332;-63
2023/12/20 07:37:05;;;;;;;17.25;5.13;;;;;;;4.25;100.00;101381.75;5067488;28;20035;-63
2023/12/20 07:39:31;;;;;;;15.88;4.63;;;;;;;4.25;100.00;101376.63;5048762;28;20031;-63
2023/12/20 07:41:56;;;;;;;13.05;4.13;;;;;;;4.26;100.00;101385.22;5057747;28;20064;-63
2023/12/20 07:44:21;;;;;;;18.50;4.32;;;;;;;4.26;100.00;101378.44;5065996;28;20139;-63
2023/12/20 07:46:48;;;;;;;20.17;4.90;;;;;;;4.27;100.00;101380.19;5043764;28;20025;-63
2023/12/20 07:49:13;;;;;;;17.85;4.60;;;;;;;4.30;100.00;101375.25;5053398;28;20049;-63
2023/12/20 07:51:39;;;;;;;17.70;4.32;;;;;;;4.30;100.00;101375.25;5037779;28;20572;-63
2023/12/20 07:54:04;;;;;;;14.57;4.10;;;;;;;4.29;100.00;101373.50;5028231;28;20041;-63
2023/12/20 07:56:30;;;;;;;18.50;3.73;;;;;;;4.32;100.00;101383.94;5047634;28;20029;-63
2023/12/20 07:58:55;;;;;;;15.63;4.18;;;;;;;4.33;100.00;101384.84;5054838;28;20033;-63
2023/12/20 08:01:20;;;;;;;20.50;4.50;;;;;;;4.36;100.00;101389.28;5041435;28;20033;-63
2023/12/20 08:03:46;;;;;;;22.63;4.63;;;;;;;4.38;100.00;101387.72;5047579;28;20563;-63
2023/12/20 08:06:11;;;;;;;18.17;4.00;;;;;;;4.40;100.00;101391.28;5060196;28;20051;-63
2023/12/20 08:08:36;;;;;;;12.75;4.05;;;;;;;4.42;100.00;101397.41;5060032;28;20491;-63
2023/12/20 08:11:02;;;;;;;19.80;4.38;;;;;;;4.43;100.00;101396.59;5060067;28;20020;-63
2023/12/20 08:13:28;;;;;;;19.23;5.23;;;;;;;4.47;100.00;101393.47;5048765;28;20492;-63
2023/12/20 08:15:53;;;;;;;18.20;4.53;;;;;;;4.45;100.00;101400.16;5037266;28;20444;-63
2023/12/20 08:18:19;;;;;;;15.40;3.90;;;;;;;4.47;100.00;101395.13;5058873;28;20480;-63
2023/12/20 08:20:44;;;;;;;20.58;5.45;;;;;;;4.45;100.00;101400.16;5059369;28;20432;-63
2023/12/20 08:23:09;;;;;;;22.55;4.63;;;;;;;4.47;100.00;101400.25;5036488;28;20021;-63
2023/12/20 08:25:35;;;;;;;16.93;4.53;;;;;;;4.47;100.00;101408.84;5039467;28;20020;-63
2023/12/20 08:28:02;;;;;;;20.38;5.35;;;;;;;4.48;100.00;101412.31;5047858;28;20043;-63
2023/12/20 08:30:27;;;;;;;16.08;4.28;;;;;;;4.55;100.00;101417.06;5047027;28;20099;-63
2023/12/20 08:32:52;;;;;;;18.33;4.18;;;;;;;4.55;100.00;101415.38;5056850;28;20061;-63
2023/12/20 08:35:18;;;;;;;19.73;4.93;;;;;;;4.55;100.00;101419.63;5048899;28;20357;-63
2023/12/20 08:37:44;;;;;;;23.33;5.20;;;;;;;4.58;100.00;101412.13;5063659;28;20628;-63
2023/12/20 08:40:09;;;;;;;15.32;3.90;;;;;;;4.64;100.00;101411.66;5047461;28;20129;-63
2023/12/20 08:42:35;;;;;;;22.05;4.95;;;;;;;4.65;100.00;101413.41;5057133;28;20144;-63
2023/12/20 08:45:00;;;;;;;23.73;4.55;;;;;;;4.67;100.00;101401.56;5028671;28;20033;-63
2023/12/20 08:47:25;;;;;;;13.53;3.70;;;;;;;4.71;100.00;101398.44;5031507;28;20025;-63
2023/12/20 08:49:58;;;;;;;17.05;5.90;;;;;;;4.72;100.00;101395.06;5056113;28;20159;-62
2023/12/20 08:52:23;;;;;;;14.95;3.92;;;;;;;4.74;100.00;101384.88;5061569;28;20497;-63
2023/12/20 08:54:51;;;;;;;16.63;4.22;;;;;;;4.79;100.00;101381.81;5047504;28;20036;-63
2023/12/20 08:57:18;;;;;;;18.00;4.88;;;;;;;4.82;100.00;101375.13;5058553;28;20029;-62
2023/12/20 08:59:43;;;;;;;17.08;3.72;;;;;;;4.84;100.00;101378.69;5057855;28;20123;-63
2023/12/20 09:02:08;;;;;;;13.27;4.53;;;;;;;4.84;100.00;101370.97;5059380;28;20112;-63
2023/12/20 09:04:34;;;;;;;22.70;4.85;;;;;;;4.84;100.00;101383.81;5058379;28;20449;-63
2023/12/20 09:07:01;;;;;;;15.60;4.57;;;;;;;4.86;100.00;101374.50;5051821;28;20058;-63
2023/12/20 09:09:26;;;;;;;12.53;4.13;;;;;;;4.88;100.00;101370.34;5043143;28;20029;-63
2023/12/20 09:11:51;;;;;;;19.70;4.70;;;;;;;4.90;100.00;101369.69;5057882;28;20017;-63
2023/12/20 09:14:16;;;;;;;17.33;3.65;;;;;;;4.93;100.00;101379.25;5046327;28;20445;-63
2023/12/20 09:16:42;;;;;;;15.35;3.88;;;;;;;4.91;100.00;101375.72;5037944;28;20424;-63
2023/12/20 09:19:07;;;;;;;15.95;4.00;;;;;;;4.90;100.00;101379.06;5054789;28;20393;-63
2023/12/20 09:21:32;;;;;;;17.38;4.55;;;;;;;4.88;100.00;101376.38;5049555;28;20064;-63
2023/12/20 09:23:58;;;;;;;14.65;4.47;;;;;;;4.90;100.00;101390.22;5066306;28;20361;-63
2023/12/20 09:26:24;;;;;;;12.38;4.03;;;;;;;4.88;100.00;101378.97;5056694;28;20029;-62
2023/12/20 09:28:49;;;;;;;21.15;4.57;;;;;;;4.88;100.00;101385.75;5046233;28;20025;-63
2023/12/20 09:31:14;;;;;;;15.93;4.00;;;;;;;4.91;100.00;101386.00;5050545;28;20643;-63
2023/12/20 09:33:39;;;;;;;15.32;3.78;;;;;;;4.91;100.00;101391.13;5056641;28;20107;-63
2023/12/20 09:36:05;;;;;;;15.88;3.70;;;;;;;4.91;100.00;101392.00;5048155;28;20039;-63
2023/12/20 09:38:31;;;;;;;14.98;3.92;;;;;;;4.92;100.00;101372.34;5057277;28;20166;-63
2023/12/20 09:40:56;;;;;;;10.10;3.40;;;;;;;4.93;100.00;101384.38;5062647;28;20399;-63
2023/12/20 09:43:24;;;;;;;11.80;3.55;;;;;;;4.97;100.00;101380.31;5067139;28;20043;-63
2023/12/20 09:45:53;;;;;;;20.90;4.25;;;;;;;4.98;100.00;101388.16;5048927;28;20087;-63
2023/12/20 09:48:19;;;;;;;19.85;4.57;;;;;;;4.97;100.00;101382.88;5046682;28;20461;-62
2023/12/20 09:50:44;;;;;;;20.58;3.83;;;;;;;4.96;100.00;101387.16;5055846;28;20052;-63
2023/12/20 09:53:14;;;;;;;16.70;4.18;;;;;;;4.99;100.00;101384.78;5038022;28;20021;-63
2023/12/20 09:55:41;;;;;;;17.25;4.88;;;;;;;5.04;100.00;101388.53;5058126;28;20500;-63
2023/12/20 09:58:08;;;;;;;16.17;3.53;;;;;;;5.05;100.00;101369.75;5057300;28;20102;-63
2023/12/20 10:00:34;;;;;;;14.30;4.40;;;;;;;5.07;100.00;101374.09;5046403;28;20029;-63
2023/12/20 10:03:00;;;;;;;11.35;3.35;;;;;;;5.11;100.00;101370.94;5043292;28;20048;-63
2023/12/20 10:05:31;;;;;;;13.20;3.15;;;;;;;5.13;100.00;101370.22;5054341;28;20024;-63
2023/12/20 10:07:56;;;;;;;11.07;3.57;;;;;;;5.14;100.00;101374.59;5068528;28;20067;-63
2023/12/20 10:10:22;;;;;;;13.35;3.53;;;;;;;5.16;100.00;101377.25;5050209;28;20024;-63
2023/12/20 10:13:02;;;;;;;13.55;3.10;;;;;;;5.23;100.00;101373.38;5050277;28;20481;-63
2023/12/20 10:15:27;;;;;;;16.38;3.80;;;;;;;5.25;100.00;101362.41;5047058;28;20032;-63
2023/12/20 10:17:54;;;;;;;15.70;3.20;;;;;;;5.27;100.00;101365.94;5066423;28;20394;-63
2023/12/20 10:20:19;;;;;;;16.13;3.03;;;;;;;5.27;100.00;101353.09;5060971;28;20028;-63
2023/12/20 10:22:46;;;;;;;11.90;2.83;;;;;;;5.26;100.00;101353.91;5050678;28;20025;-63
2023/12/20 10:25:11;;;;;;;12.27;3.03;;;;;;;5.31;100.00;101371.31;5060277;28;20040;-63
2023/12/20 10:27:37;;;;;;;16.58;3.47;;;;;;;5.33;100.00;101369.69;5056484;28;20043;-63
2023/12/20 10:30:02;;;;;;;13.10;3.30;;;;;;;5.35;100.00;101370.69;5049918;28;20498;-63
2023/12/20 10:32:28;;;;;;;20.70;3.60;;;;;;;5.37;100.00;101381.94;5049209;28;20028;-63
2023/12/20 10:34:55;;;;;;;20.67;3.47;;;;;;;5.39;100.00;101375.22;5049747;28;20481;-63
2023/12/20 10:37:20;;;;;;;16.85;3.88;;;;;;;5.43;100.00;101376.31;5062228;28;20021;-63
2023/12/20 10:39:57;;;;;;;21.48;3.95;;;;;;;5.44;100.00;101366.13;5037090;28;20392;-63
2023/12/20 10:42:26;;;;;;;16.95;3.80;;;;;;;5.47;100.00;101362.84;5049092;28;20385;-63
2023/12/20 10:44:53;;;;;;;18.20;3.17;;;;;;;5.49;100.00;101358.69;5041456;28;20021;-63
2023/12/20 10:47:19;;;;;;;12.18;3.50;;;;;;;5.57;100.00;101352.34;5044406;28;20111;-63
2023/12/20 10:49:45;;;;;;;15.45;3.10;;;;;;;5.57;100.00;101354.91;5058504;28;20048;-63
2023/12/20 10:52:12;;;;;;;13.27;3.50;;;;;;;5.57;100.00;101348.88;5064242;28;20498;-63
2023/12/20 10:54:38;;;;;;;13.88;4.22;;;;;;;5.57;100.00;101343.72;5039167;28;20035;-63
2023/12/20 10:57:05;;;;;;;9.23;2.70;;;;;;;5.56;100.00;101336.81;5036113;28;20401;-63
2023/12/20 10:59:33;;;;;;;15.18;3.63;;;;;;;5.58;100.00;101336.09;5049389;28;20623;-63
2023/12/20 11:02:00;;;;;;;16.95;4.03;;;;;;;5.59;100.00;101331.84;5049495;28;20025;-63
2023/12/20 11:04:48;;;;;;;12.88;3.88;;;;;;;5.60;100.00;101334.50;5049896;28;20032;-63
2023/12/20 11:07:40;;;;;;;13.55;3.40;;;;;;;5.65;100.00;101332.22;5043316;28;20029;-63
2023/12/20 11:10:13;;;;;;;16.77;2.88;;;;;;;5.65;100.00;101327.06;5062561;28;20159;-63